Essie, Kentucky
Current Conditions -  °F | °C
As of 7:15 PM on Wednesday 26 Nov 2014 (Local Time) from KI35 Reporting Station
Overcast Overcast  
Wind Chill:   Ceiling: 10000
Heat Index:   Visibility: 10mi
Dew Point: -5°   Wind: 0mph
Humidity: 49%   Direction: NA
Pressure: 29.99"   Gusts: NA
Location:  37.06°N, 83.45°W
Report Text: KI35 270015Z AUTO 00000KT 10SM BKN100 OVC110 05/M05 A2999 RMK AO1
Loading
Personal Weather Stations






























Interactive Weather Map New forecast layout! Learn more

10-Day Weather Forecast

Advertisements
Track Severe Weather on mobile